Terminal Aerodrome Forecast
Issued by NWS

Home | Current Version | Previous Version | Graphics & Text | Print | Product List | Glossary On
Versions: 1 2 3 4 5 6 7 8 9 10 11 12 13 14 15 16 17 18 19 20 21
000
FTUS43 KGRB 200500
TAFCWA
TAF
KCWA 200520Z 2006/2106 20003KT 6SM BR BKN018 OVC025
     FM200800 17003KT 4SM BR OVC009
     FM201700 16005KT 6SM BR OVC012
     FM210100 15004KT 4SM BR OVC008
      AMD LTD TO CLD VIS AND WIND TIL 201200=

USA.gov is the U.S. government's official web portal to all federal, state and local government web resources and services.